This demonstration page uses our WeatherBlox Daily Observations layout. Learn more.

38.80484, -77.04692

Hourly Observations for November 15, 2019

Temp ( °F °C ) Dew Point ( °F °C ) Humidity (%) Winds ( mph kmh ) Pressure ( in mb ) Visibility ( mi km ) Precip ( " mm )
12:52 am 00:52 Mostly Cloudy 37 2.8 28 -2.2 70 70 Calm 30.3 1026 10 16.0934 0 0
1:52 am 01:52 Mostly Cloudy 35 1.7 27 -2.8 72 72 N 3 6 30.29 1026 10 16.0934 0 0
2:52 am 02:52 Cloudy 35 1.7 28 -2.2 76 76 N 3 6 30.29 1026 10 16.0934 0 0
3:52 am 03:52 Cloudy 36 2.2 26 -3.3 67 67 Calm 30.27 1025 10 16.0934 0 0
4:52 am 04:52 Cloudy 34 1.1 26 -3.3 73 73 N 5 7 30.27 1025 10 16.0934 0 0
5:52 am 05:52 Cloudy 35 1.7 25 -3.9 67 67 N 3 6 30.28 1026 10 16.0934 0 0
6:52 am 06:52 Cloudy 36 2.2 29 -1.7 76 76 Calm 30.3 1026 10 16.0934 0 0
7:52 am 07:52 Cloudy 37 2.8 27 -2.8 67 67 Calm 30.3 1026 10 16.0934 0 0
8:52 am 08:52 Cloudy 40 4.4 28 -2.2 63 63 NNE 5 7 30.3 1026 10 16.0934 0 0
9:52 am 09:52 Cloudy 43 6.1 29 -1.7 58 58 VRB 6 9 30.3 1026 10 16.0934 0 0
10:52 am 10:52 Mostly Cloudy 51 10.6 26 -3.3 38 38 NNW 12 19 30.28 1026 10 16.0934 0 0
11:52 am 11:52 Mostly Cloudy 53 11.7 25 -3.9 34 34 NW 10 17 30.25 1025 10 16.0934 0 0
12:52 pm 12:52 Mostly Cloudy 54 12.2 26 -3.3 34 34 NW 10 17 30.22 1024 10 16.0934 0 0
1:52 pm 13:52 Cloudy 54 12.2 25 -3.9 33 33 NW 6 9 30.21 1023 10 16.0934 0 0
2:52 pm 14:52 Cloudy 53 11.7 26 -3.3 35 35 NW 8 13 30.2 1023 10 16.0934 0 0
3:52 pm 15:52 Cloudy 52 11.1 26 -3.3 37 37 NW 7 11 30.19 1022 10 16.0934 0 0
4:52 pm 16:52 Mostly Cloudy 51 10.6 26 -3.3 38 38 N 7 11 30.19 1022 10 16.0934 0 0
5:52 pm 17:52 Mostly Cloudy 50 10 28 -2.2 43 43 N 6 9 30.19 1022 10 16.0934 0 0
6:52 pm 18:52 Cloudy 49 9.4 30 -1.1 48 48 NE 3 6 30.21 1023 10 16.0934 0 0
7:52 pm 19:52 Mostly Cloudy 47 8.3 31 -0.6 54 54 NNE 3 6 30.21 1023 10 16.0934 0 0
8:52 pm 20:52 Mostly Cloudy 44 6.7 30 -1.1 58 58 N 6 9 30.22 1023 10 16.0934 0 0
9:52 pm 21:52 Mostly Clear 41 5 32 0 70 70 N 7 11 30.23 1024 10 16.0934 0 0
10:52 pm 22:52 Clear 40 4.4 28 -2.2 63 63 NNW 10 17 30.23 1024 10 16.0934 0 0
11:52 pm 23:52 Clear 42 5.6 27 -2.8 55 55 N 12 19 30.24 1024 10 16.0934 0 0

Powered by AerisWeather